Time;durP1;ratioP1;P1;durP2;ratioP2;P2;SDS_P1;SDS_P2;PMS_P1;PMS_P2;Temp;Humidity;BMP_temperature;BMP_pressure;BME280_temperature;BME280_humidity;BME280_pressure;Samples;Min_cycle;Max_cycle;Signal;HPM_P1;HPM_P2
2022/07/23 00:00:11;;;;;;;28.08;17.75;;;;;;;29.74;69.88;100882.19;4955940;28;66655;-33
2022/07/23 00:02:42;;;;;;;25.33;15.77;;;;;;;29.77;70.00;100887.16;5023968;28;69229;-32
2022/07/23 00:05:13;;;;;;;27.50;17.45;;;;;;;29.82;70.22;100895.47;4967817;28;66063;-31
2022/07/23 00:07:44;;;;;;;21.77;16.65;;;;;;;29.82;70.44;100889.22;4962635;28;71623;-32
2022/07/23 00:10:16;;;;;;;24.25;17.42;;;;;;;29.91;69.72;100900.63;4956053;28;65799;-32
2022/07/23 00:12:46;;;;;;;28.85;18.08;;;;;;;29.84;70.20;100893.38;4959239;28;69853;-32
2022/07/23 00:15:20;;;;;;;37.90;18.10;;;;;;;29.98;70.50;100904.16;4984945;28;66386;-32
2022/07/23 00:17:51;;;;;;;53.85;21.85;;;;;;;29.98;70.67;100896.06;4959644;28;70030;-32
2022/07/23 00:20:22;;;;;;;31.10;22.55;;;;;;;29.94;71.81;100902.91;4955708;28;65479;-31
2022/07/23 00:22:55;;;;;;;47.85;25.45;;;;;;;29.91;72.10;100897.94;4959437;28;69251;-32
2022/07/23 00:25:27;;;;;;;50.88;28.08;;;;;;;29.83;72.00;100886.28;4959001;28;65883;-31
2022/07/23 00:28:00;;;;;;;43.90;28.05;;;;;;;29.93;72.46;100912.09;4958709;28;70247;-31
2022/07/23 00:30:32;;;;;;;72.55;28.80;;;;;;;29.90;72.17;100907.09;5021299;28;66222;-31
2022/07/23 00:33:06;;;;;;;65.68;26.42;;;;;;;29.65;72.22;100861.84;4955376;28;70591;-36
2022/07/23 00:35:40;;;;;;;60.65;24.42;;;;;;;29.67;71.58;100864.31;5041082;28;65694;-32
2022/07/23 00:38:11;;;;;;;45.03;23.17;;;;;;;30.04;72.54;100916.81;4958904;28;70547;-31
2022/07/23 00:40:42;;;;;;;42.85;20.95;;;;;;;30.06;72.14;100923.69;5020564;28;68167;-32
2022/07/23 00:43:14;;;;;;;42.17;20.33;;;;;;;30.04;72.15;100919.53;5024749;28;69092;-32
2022/07/23 00:45:44;;;;;;;39.53;20.02;;;;;;;30.11;72.24;100923.03;4957169;28;66330;-31
2022/07/23 00:48:15;;;;;;;32.95;18.08;;;;;;;30.13;72.20;100929.06;4956957;28;70845;-31
2022/07/23 00:50:47;;;;;;;43.15;19.35;;;;;;;30.17;71.23;100935.72;4955303;28;66300;-31
2022/07/23 00:53:19;;;;;;;26.02;16.50;;;;;;;30.24;69.79;100931.13;5026253;28;70532;-32
2022/07/23 00:55:50;;;;;;;30.70;15.75;;;;;;;30.33;69.49;100936.28;4954430;28;66172;-31
2022/07/23 00:58:22;;;;;;;27.23;15.60;;;;;;;30.39;69.06;100927.31;4957180;28;69909;-31
2022/07/23 01:00:53;;;;;;;27.50;15.98;;;;;;;30.44;69.14;100932.91;5022893;28;65610;-30
2022/07/23 01:03:24;;;;;;;23.42;14.90;;;;;;;30.50;69.17;100934.75;5020149;28;70627;-30
2022/07/23 01:05:55;;;;;;;24.13;15.63;;;;;;;30.57;68.96;100943.66;4956663;28;66392;-30
2022/07/23 01:08:26;;;;;;;28.20;15.35;;;;;;;30.62;68.83;100943.84;5024882;28;71229;-31
2022/07/23 01:10:57;;;;;;;21.55;14.43;;;;;;;30.67;68.03;100941.34;5031411;28;65624;-31
2022/07/23 01:13:28;;;;;;;28.50;15.00;;;;;;;30.70;67.59;100938.19;5017019;28;70262;-31
2022/07/23 01:15:59;;;;;;;23.23;13.90;;;;;;;30.76;67.40;100943.75;5027904;28;65681;-31
2022/07/23 01:18:30;;;;;;;26.95;15.10;;;;;;;30.75;67.37;100937.50;5023679;28;70251;-31
2022/07/23 01:21:01;;;;;;;19.92;13.98;;;;;;;30.81;67.46;100933.97;5009451;28;65731;-31
2022/07/23 01:23:32;;;;;;;25.85;14.63;;;;;;;30.85;66.92;100947.91;5022919;28;69937;-31
2022/07/23 01:26:03;;;;;;;21.60;13.07;;;;;;;30.90;66.76;100942.69;5026751;28;66688;-31
2022/07/23 01:28:34;;;;;;;16.75;12.30;;;;;;;30.92;66.29;100943.25;4953552;28;70496;-32
2022/07/23 01:31:06;;;;;;;18.85;12.77;;;;;;;30.87;66.50;100922.28;5042651;28;66293;-31
2022/07/23 01:33:37;;;;;;;15.45;12.60;;;;;;;30.92;65.95;100933.28;5013770;28;68965;-30
2022/07/23 01:36:09;;;;;;;21.73;12.67;;;;;;;31.01;66.36;100939.25;4957680;28;66506;-31
2022/07/23 01:38:40;;;;;;;18.23;12.13;;;;;;;30.98;65.96;100925.31;4953520;28;69095;-31
2022/07/23 01:41:11;;;;;;;14.68;11.52;;;;;;;31.08;65.57;100936.47;5020236;28;66334;-31
2022/07/23 01:43:43;;;;;;;14.02;11.18;;;;;;;31.10;65.76;100937.09;5022965;28;69307;-32
2022/07/23 01:46:15;;;;;;;12.90;10.65;;;;;;;31.05;65.49;100920.69;5018515;28;65718;-31
2022/07/23 01:48:49;;;;;;;17.05;10.80;;;;;;;31.14;65.16;100933.72;5019704;28;70298;-32
2022/07/23 01:52:00;;;;;;;12.00;10.32;;;;;;;31.17;64.98;100929.72;5026296;28;66585;-31
2022/07/23 01:54:39;;;;;;;17.05;10.18;;;;;;;31.24;64.93;100940.53;5018193;28;71043;-31
2022/07/23 01:57:11;;;;;;;11.07;9.77;;;;;;;31.26;64.74;100933.00;5007307;28;66254;-33
2022/07/23 01:59:42;;;;;;;12.97;10.47;;;;;;;31.23;64.51;100923.44;5015120;28;70691;-32
2022/07/23 02:02:14;;;;;;;15.13;10.50;;;;;;;31.29;64.72;100927.16;5040055;28;65358;-33
2022/07/23 02:04:45;;;;;;;11.83;10.10;;;;;;;31.32;64.45;100921.28;5036865;28;70161;-31
2022/07/23 02:07:18;;;;;;;11.32;10.15;;;;;;;31.36;64.38;100923.34;5037060;28;66082;-31
2022/07/23 02:09:48;;;;;;;13.48;9.25;;;;;;;31.39;63.82;100927.50;5023008;28;69776;-31
2022/07/23 02:12:19;;;;;;;10.75;8.70;;;;;;;31.33;63.81;100901.25;5030453;28;66089;-30
2022/07/23 02:14:50;;;;;;;12.30;9.50;;;;;;;31.43;63.69;100920.59;5034095;28;69995;-31
2022/07/23 02:17:20;;;;;;;15.23;9.27;;;;;;;31.45;63.83;100921.16;5036521;28;66006;-31
2022/07/23 02:19:51;;;;;;;10.48;9.48;;;;;;;31.48;63.27;100915.31;5031678;28;70315;-31
2022/07/23 02:22:23;;;;;;;10.48;8.73;;;;;;;31.44;63.73;100902.44;5037396;28;66498;-31
2022/07/23 02:24:54;;;;;;;9.93;8.30;;;;;;;31.51;63.55;100909.47;5018010;28;70001;-32
2022/07/23 02:27:25;;;;;;;9.85;8.80;;;;;;;31.53;63.25;100898.38;5032693;28;66298;-30
2022/07/23 02:29:57;;;;;;;9.48;8.55;;;;;;;31.55;63.53;100899.81;5031763;28;71694;-31
2022/07/23 02:32:28;;;;;;;14.00;9.35;;;;;;;31.57;63.18;100907.72;5037244;28;65960;-31
2022/07/23 02:34:59;;;;;;;11.68;8.25;;;;;;;31.60;63.31;100902.69;5037599;28;70516;-31
2022/07/23 02:37:30;;;;;;;10.75;8.27;;;;;;;31.54;62.81;100892.75;5032995;28;66756;-30
2022/07/23 02:40:01;;;;;;;8.57;7.77;;;;;;;31.65;62.69;100898.44;5041709;28;69275;-31
2022/07/23 02:42:33;;;;;;;9.30;8.57;;;;;;;31.68;62.71;100898.84;5021981;28;65384;-31
2022/07/23 02:45:05;;;;;;;;;;;;;;;31.38;63.48;100907.69;5035656;28;70335;-31
2022/07/23 02:47:36;;;;;;;12.07;8.00;;;;;;;31.66;63.20;100894.69;5029854;28;66467;-31
2022/07/23 02:50:07;;;;;;;8.40;7.60;;;;;;;31.75;62.71;100902.28;5031283;28;70020;-32
2022/07/23 02:52:39;;;;;;;8.30;7.55;;;;;;;31.76;62.62;100901.25;5037247;28;66238;-31
2022/07/23 02:55:10;;;;;;;8.82;7.97;;;;;;;31.79;62.22;100900.81;5035400;28;69551;-31
2022/07/23 02:57:41;;;;;;;8.25;7.07;;;;;;;31.82;62.67;100899.53;5032579;28;65968;-31
2022/07/23 03:00:13;;;;;;;8.63;7.75;;;;;;;31.80;62.68;100897.03;5024499;28;69791;-32
2022/07/23 03:02:44;;;;;;;8.95;7.72;;;;;;;31.86;62.63;100894.47;5021559;28;66576;-32
2022/07/23 03:05:15;;;;;;;11.23;8.07;;;;;;;31.88;62.20;100893.19;4959717;28;71352;-31
2022/07/23 03:07:46;;;;;;;8.13;7.45;;;;;;;31.88;62.50;100886.94;5023785;28;66234;-33
2022/07/23 03:10:17;;;;;;;11.52;8.15;;;;;;;31.94;61.89;100897.72;5024835;28;70149;-32
2022/07/23 03:12:48;;;;;;;8.07;7.27;;;;;;;31.94;62.21;100903.16;4955812;28;66353;-32
2022/07/23 03:15:19;;;;;;;7.50;6.95;;;;;;;31.96;62.08;100895.63;5004532;28;70304;-31
2022/07/23 03:17:50;;;;;;;8.93;7.63;;;;;;;31.98;61.63;100888.09;4962467;28;66291;-31
2022/07/23 03:20:21;;;;;;;12.43;7.22;;;;;;;32.00;61.84;100891.41;4959867;28;70574;-32
2022/07/23 03:22:52;;;;;;;7.28;6.55;;;;;;;31.80;61.66;100852.81;5022712;28;66428;-32
2022/07/23 03:25:23;;;;;;;8.45;7.25;;;;;;;32.04;61.58;100881.75;5016068;28;71120;-32
2022/07/23 03:27:54;;;;;;;7.32;6.63;;;;;;;32.05;61.87;100880.69;4959083;28;65146;-32
2022/07/23 03:30:28;;;;;;;11.30;7.00;;;;;;;32.10;61.67;100881.91;5018250;28;69626;-31
2022/07/23 03:32:59;;;;;;;8.30;7.40;;;;;;;32.09;61.60;100880.22;5019106;28;65148;-31
2022/07/23 03:35:30;;;;;;;10.82;7.50;;;;;;;32.07;61.56;100875.03;4958494;28;71364;-31
2022/07/23 03:38:17;;;;;;;9.88;7.65;;;;;;;32.16;61.35;100891.84;5019443;28;65304;-33
2022/07/23 03:40:47;;;;;;;14.95;6.95;;;;;;;32.15;61.44;100890.16;5041699;28;70119;-32
2022/07/23 03:43:19;;;;;;;7.47;6.83;;;;;;;32.15;61.43;100876.59;5021026;28;66093;-31
2022/07/23 03:45:49;;;;;;;8.20;6.88;;;;;;;32.15;61.31;100876.59;4968379;28;69231;-34
2022/07/23 03:48:20;;;;;;;7.32;6.60;;;;;;;32.22;61.20;100885.50;4957318;28;65603;-32
2022/07/23 03:50:51;;;;;;;10.45;6.47;;;;;;;32.22;60.84;100882.78;4959500;28;70216;-31
2022/07/23 03:53:22;;;;;;;10.98;7.18;;;;;;;32.26;61.05;100876.66;5039314;28;66510;-34
2022/07/23 03:55:53;;;;;;;8.65;7.57;;;;;;;32.28;61.36;100871.00;4959111;28;69555;-32
2022/07/23 03:58:25;;;;;;;7.15;6.47;;;;;;;32.02;60.93;100828.78;5024245;28;65460;-31
2022/07/23 04:00:56;;;;;;;11.70;6.45;;;;;;;32.28;60.91;100869.09;5033224;28;69821;-33
2022/07/23 04:03:27;;;;;;;6.37;5.90;;;;;;;32.31;60.98;100865.09;5040785;28;65619;-31
2022/07/23 04:05:58;;;;;;;11.57;6.95;;;;;;;32.33;60.94;100867.59;5038973;28;70257;-31
2022/07/23 04:08:31;;;;;;;7.82;7.10;;;;;;;32.34;60.72;100870.06;5035006;28;66153;-31
2022/07/23 04:11:05;;;;;;;12.70;6.88;;;;;;;32.35;60.64;100866.31;5037607;28;70268;-32
2022/07/23 04:13:37;;;;;;;11.13;6.70;;;;;;;32.36;60.95;100862.53;5034397;28;66204;-32
2022/07/23 04:16:08;;;;;;;7.72;6.53;;;;;;;32.37;60.93;100853.31;5031476;28;69215;-31
2022/07/23 04:18:39;;;;;;;18.08;9.57;;;;;;;32.33;60.79;100846.69;5036125;28;67617;-32
2022/07/23 04:21:19;;;;;;;11.13;8.10;;;;;;;32.38;60.79;100854.97;5032673;28;70082;-31
2022/07/23 04:23:50;;;;;;;35.87;22.83;;;;;;;32.32;60.60;100839.63;5033868;28;67632;-31
2022/07/23 04:26:22;;;;;;;20.42;16.40;;;;;;;32.37;60.63;100842.44;5038494;28;69480;-32
2022/07/23 04:28:53;;;;;;;66.63;45.72;;;;;;;32.38;60.52;100837.88;5040303;28;66093;-33
2022/07/23 04:31:24;;;;;;;45.03;30.77;;;;;;;32.41;60.59;100848.28;5034189;28;70268;-31
2022/07/23 04:33:55;;;;;;;32.60;20.00;;;;;;;32.41;60.88;100838.22;5038973;28;66280;-32
2022/07/23 04:36:26;;;;;;;20.48;15.30;;;;;;;32.41;60.74;100843.66;5037544;28;70061;-31
2022/07/23 04:38:56;;;;;;;20.98;15.18;;;;;;;32.41;60.72;100835.50;5017247;28;65763;-30
2022/07/23 04:41:28;;;;;;;15.70;12.40;;;;;;;32.44;60.66;100836.94;5033413;28;68958;-30
2022/07/23 04:43:59;;;;;;;16.73;13.27;;;;;;;32.46;60.34;100835.69;5050906;28;67337;-32
2022/07/23 04:46:30;;;;;;;25.95;13.95;;;;;;;32.49;60.50;100837.94;5038778;28;70977;-31
2022/07/23 04:49:03;;;;;;;18.50;13.60;;;;;;;32.51;60.46;100834.16;5036871;28;65313;-31
2022/07/23 04:51:35;;;;;;;17.20;13.13;;;;;;;32.53;60.05;100832.03;5030590;28;70033;-33
2022/07/23 04:54:06;;;;;;;15.10;13.52;;;;;;;32.52;60.51;100827.69;5041334;28;67155;-31
2022/07/23 04:56:37;;;;;;;18.25;12.55;;;;;;;32.54;60.47;100828.25;5023517;28;69265;-31
2022/07/23 04:59:08;;;;;;;21.17;13.43;;;;;;;32.54;60.51;100825.53;5036226;28;66273;-32
2022/07/23 05:01:39;;;;;;;19.83;11.80;;;;;;;32.42;60.29;100796.44;5038758;28;70300;-32
2022/07/23 05:04:11;;;;;;;15.55;12.63;;;;;;;32.55;60.10;100810.91;5035449;28;66126;-31
2022/07/23 05:06:43;;;;;;;13.70;11.73;;;;;;;32.58;60.17;100821.31;5038408;28;69502;-32
2022/07/23 05:09:14;;;;;;;13.38;11.65;;;;;;;32.53;60.41;100813.03;5036309;28;65211;-31
2022/07/23 05:11:45;;;;;;;12.05;10.85;;;;;;;32.59;60.44;100817.50;5037621;28;70955;-32
2022/07/23 05:14:17;;;;;;;11.90;10.85;;;;;;;32.58;60.54;100805.84;5037519;28;66572;-31
2022/07/23 05:16:48;;;;;;;16.65;10.70;;;;;;;32.60;60.19;100803.72;5035271;28;70386;-31
2022/07/23 05:19:23;;;;;;;13.07;11.70;;;;;;;32.63;60.14;100791.56;5035719;28;65666;-32
2022/07/23 05:21:54;;;;;;;11.77;10.83;;;;;;;32.62;60.04;100795.31;5036217;28;70275;-33
2022/07/23 05:24:26;;;;;;;14.97;10.97;;;;;;;32.61;60.21;100793.69;5021107;28;66544;-32
2022/07/23 05:26:57;;;;;;;16.70;10.88;;;;;;;32.62;60.24;100784.47;5039902;28;70299;-35
2022/07/23 05:29:28;;;;;;;16.13;11.10;;;;;;;32.63;60.19;100781.53;5039304;28;65587;-32
2022/07/23 05:31:59;;;;;;;12.38;11.00;;;;;;;32.65;60.20;100773.13;5036610;28;70378;-38
2022/07/23 05:34:31;;;;;;;11.90;10.77;;;;;;;32.65;60.20;100771.25;5036517;28;66655;-33
2022/07/23 05:37:02;;;;;;;13.05;11.75;;;;;;;32.67;60.35;100774.53;5025541;28;69904;-34
2022/07/23 05:39:34;;;;;;;11.70;10.60;;;;;;;32.69;60.07;100768.88;5038005;28;65737;-31
2022/07/23 05:42:05;;;;;;;14.07;11.43;;;;;;;32.71;60.23;100762.16;5032827;28;69375;-31
2022/07/23 05:44:36;;;;;;;13.00;11.43;;;;;;;32.71;60.09;100761.34;5038427;28;66306;-33
2022/07/23 05:47:07;;;;;;;10.63;9.85;;;;;;;32.70;60.17;100746.91;5034923;28;70125;-32
2022/07/23 05:49:39;;;;;;;11.80;10.68;;;;;;;32.75;59.91;100746.22;5051436;28;65363;-32
2022/07/23 05:52:18;;;;;;;12.02;10.75;;;;;;;32.78;59.95;100751.16;5038381;28;70322;-33
2022/07/23 05:55:12;;;;;;;13.60;10.70;;;;;;;32.79;60.13;100736.53;5032778;28;66135;-32
2022/07/23 05:57:43;;;;;;;11.68;10.57;;;;;;;32.83;60.01;100735.00;5040677;28;69942;-32
2022/07/23 06:00:14;;;;;;;12.82;11.50;;;;;;;32.85;59.89;100724.72;5030270;28;66187;-31
2022/07/23 06:02:47;;;;;;;13.80;10.52;;;;;;;32.87;59.84;100730.72;5004136;28;69831;-31
2022/07/23 06:05:25;;;;;;;11.40;10.27;;;;;;;32.91;59.92;100725.66;5020341;28;66253;-32
2022/07/23 06:07:58;;;;;;;11.70;10.68;;;;;;;32.92;59.88;100719.97;5015580;28;70102;-32
2022/07/23 06:10:30;;;;;;;14.10;12.70;;;;;;;32.93;59.75;100713.50;5022581;28;65711;-33
2022/07/23 06:13:01;;;;;;;14.23;11.15;;;;;;;32.97;59.77;100704.84;4949278;28;70229;-32
2022/07/23 06:15:32;;;;;;;12.48;11.02;;;;;;;32.96;59.69;100701.31;5021006;28;65663;-33
2022/07/23 06:18:04;;;;;;;12.93;10.63;;;;;;;32.98;59.59;100692.91;5020180;28;70343;-34
2022/07/23 06:20:35;;;;;;;12.70;11.37;;;;;;;32.98;59.57;100691.03;5002341;28;64959;-33
2022/07/23 06:23:05;;;;;;;13.83;12.50;;;;;;;32.99;59.73;100680.97;5020103;28;69910;-31
2022/07/23 06:25:36;;;;;;;21.33;15.35;;;;;;;33.00;59.75;100677.25;4953142;28;65455;-32
2022/07/23 06:28:07;;;;;;;13.83;12.30;;;;;;;33.04;59.66;100678.41;4951803;28;69902;-32
2022/07/23 06:30:38;;;;;;;13.25;11.80;;;;;;;32.97;59.87;100655.94;5035751;28;66183;-31
2022/07/23 06:33:11;;;;;;;11.95;10.75;;;;;;;33.06;59.45;100660.78;4958063;28;69335;-32
2022/07/23 06:35:42;;;;;;;13.70;11.77;;;;;;;33.08;59.70;100645.06;5019151;28;66144;-33
2022/07/23 06:38:13;;;;;;;12.48;11.27;;;;;;;33.13;59.45;100649.78;5022587;28;70015;-33
2022/07/23 06:40:45;;;;;;;12.00;10.80;;;;;;;33.17;59.52;100650.94;5021993;28;66060;-32
2022/07/23 06:43:16;;;;;;;12.40;11.20;;;;;;;33.17;59.67;100642.78;4955367;28;70032;-33
2022/07/23 06:45:47;;;;;;;15.27;13.90;;;;;;;33.20;59.48;100638.78;4959829;28;66060;-33
2022/07/23 06:48:18;;;;;;;17.63;15.90;;;;;;;33.19;59.73;100637.94;5023084;28;70272;-34
2022/07/23 06:50:49;;;;;;;16.17;14.60;;;;;;;33.22;59.45;100640.19;5022132;28;66275;-32
2022/07/23 06:53:24;;;;;;;54.55;34.83;;;;;;;33.21;60.19;100630.38;5042984;28;69906;-35
2022/07/23 06:55:55;;;;;;;66.05;51.90;;;;;;;33.26;60.67;100621.47;5025406;28;65929;-33
2022/07/23 06:58:27;;;;;;;75.88;56.88;;;;;;;33.23;61.51;100614.63;4957991;28;69236;-33
2022/07/23 07:00:58;;;;;;;76.07;58.37;;;;;;;33.24;61.79;100616.31;4959886;28;66345;-33
2022/07/23 07:03:29;;;;;;;80.07;61.50;;;;;;;33.29;61.58;100605.53;4958270;28;70491;-32
2022/07/23 07:06:00;;;;;;;;;;;;;;;33.01;62.73;100600.91;5018242;28;66765;-32
2022/07/23 07:08:31;;;;;;;80.53;59.90;;;;;;;33.27;62.02;100590.53;4958083;28;69752;-32
2022/07/23 07:11:03;;;;;;;87.95;62.85;;;;;;;33.30;61.54;100582.72;4958723;28;65973;-35
2022/07/23 07:13:34;;;;;;;76.15;61.88;;;;;;;33.34;62.05;100589.28;4960331;28;69562;-34
2022/07/23 07:16:05;;;;;;;78.28;62.08;;;;;;;33.39;61.88;100588.56;4957355;28;66096;-34
2022/07/23 07:18:36;;;;;;;79.07;59.33;;;;;;;33.46;61.46;100600.13;4958547;28;69880;-34
2022/07/23 07:21:07;;;;;;;76.32;59.75;;;;;;;33.44;61.69;100579.69;4949872;28;64885;-32
2022/07/23 07:23:38;;;;;;;73.38;59.75;;;;;;;33.47;61.98;100584.63;4955627;28;69131;-33
2022/07/23 07:26:09;;;;;;;70.63;56.00;;;;;;;33.43;62.19;100583.47;5023242;28;65884;-33
2022/07/23 07:28:40;;;;;;;74.03;56.97;;;;;;;33.41;62.36;100580.19;4956532;28;70044;-34
2022/07/23 07:31:11;;;;;;;;;;;;;;;33.20;63.24;100579.78;4956014;28;66161;-31
2022/07/23 07:33:42;;;;;;;68.22;52.40;;;;;;;33.43;62.43;100573.41;5018693;28;69696;-33
2022/07/23 07:36:13;;;;;;;64.38;51.45;;;;;;;33.49;62.04;100566.16;4958143;28;66002;-33
2022/07/23 07:38:47;;;;;;;62.13;50.90;;;;;;;33.54;62.18;100577.16;5016385;28;70893;-34
2022/07/23 07:41:22;;;;;;;60.70;47.63;;;;;;;33.54;62.04;100560.84;4951527;28;66414;-34
2022/07/23 07:43:53;;;;;;;65.85;48.55;;;;;;;33.57;62.02;100560.34;4958305;28;69671;-33
2022/07/23 07:46:27;;;;;;;61.43;45.53;;;;;;;33.60;61.91;100551.72;4960501;28;65701;-34
2022/07/23 07:48:58;;;;;;;56.50;44.75;;;;;;;33.64;61.54;100536.53;4952824;28;69409;-34
2022/07/23 07:51:29;;;;;;;55.47;43.38;;;;;;;33.55;61.86;100527.97;5006169;28;66739;-32
2022/07/23 07:54:01;;;;;;;51.53;42.97;;;;;;;33.56;61.47;100524.19;5022157;28;70385;-32
2022/07/23 07:56:33;;;;;;;54.30;43.17;;;;;;;33.49;62.11;100500.91;4954732;28;65518;-34
2022/07/23 07:59:04;;;;;;;49.35;41.67;;;;;;;33.69;61.99;100539.34;4956360;28;69902;-33
2022/07/23 08:01:35;;;;;;;55.10;41.03;;;;;;;33.69;61.82;100539.34;4950545;28;66111;-33
2022/07/23 08:04:13;;;;;;;51.95;39.30;;;;;;;33.49;61.79;100499.03;4958151;28;70087;-36
2022/07/23 08:06:47;;;;;;;46.10;38.38;;;;;;;33.75;61.58;100532.91;4958167;28;67121;-32
2022/07/23 08:09:20;;;;;;;43.80;37.15;;;;;;;33.74;61.79;100531.28;5023944;28;43699;-33
2022/07/23 08:11:53;;;;;;;41.43;35.50;;;;;;;33.73;61.83;100540.50;5015547;28;65304;-33
2022/07/23 08:14:24;;;;;;;33.28;27.50;;;;;;;33.70;61.16;100523.84;4957508;28;70499;-32
2022/07/23 08:16:55;;;;;;;43.47;26.35;;;;;;;33.72;61.23;100529.88;5019307;28;65128;-32
2022/07/23 08:19:43;;;;;;;42.53;26.80;;;;;;;33.78;60.84;100542.47;4949654;28;70559;-32
2022/07/23 08:22:15;;;;;;;43.85;27.00;;;;;;;33.73;61.75;100551.38;4956361;28;65770;-33
2022/07/23 08:24:47;;;;;;;41.77;28.63;;;;;;;33.78;61.66;100551.47;4950436;28;70749;-34
2022/07/23 08:27:19;;;;;;;40.70;28.13;;;;;;;33.76;62.09;100563.66;4954951;28;66976;-33
2022/07/23 08:29:51;;;;;;;41.35;27.10;;;;;;;33.72;62.77;100562.50;4956321;28;70494;-35
2022/07/23 08:32:35;;;;;;;37.53;27.73;;;;;;;33.64;63.35;100566.47;5019797;28;65985;-33
2022/07/23 08:35:14;;;;;;;39.90;27.00;;;;;;;33.63;63.36;100583.88;5039515;28;70359;-36
2022/07/23 08:37:45;;;;;;;31.92;24.55;;;;;;;33.69;63.26;100610.06;4958115;28;65755;-36
2022/07/23 08:40:16;;;;;;;34.30;24.70;;;;;;;33.59;65.28;100612.59;5036148;28;71249;-34
2022/07/23 08:42:49;;;;;;;32.83;23.87;;;;;;;33.50;65.65;100608.63;4956384;28;67700;-37
2022/07/23 08:45:23;;;;;;;31.38;20.92;;;;;;;33.24;66.24;100559.22;5016287;28;69612;-33
2022/07/23 08:48:01;;;;;;;26.98;19.98;;;;;;;33.56;66.52;100622.06;4951352;28;66821;-32
2022/07/23 08:50:41;;;;;;;32.20;23.95;;;;;;;33.60;66.39;100633.31;4953598;28;70643;-36
2022/07/23 08:53:14;;;;;;;43.80;30.98;;;;;;;33.59;66.30;100637.09;5021019;28;66787;-37
2022/07/23 08:55:46;;;;;;;50.55;34.92;;;;;;;33.62;65.96;100641.22;5011913;28;70619;-36
2022/07/23 08:58:19;;;;;;;51.17;34.28;;;;;;;33.57;66.47;100642.78;4957960;28;66404;-35
2022/07/23 09:01:09;;;;;;;46.78;30.15;;;;;;;33.59;66.36;100656.13;4954119;28;70200;-35
2022/07/23 09:03:45;;;;;;;49.75;27.67;;;;;;;33.52;67.94;100659.00;4953029;28;68518;-32
2022/07/23 09:06:16;;;;;;;31.20;22.35;;;;;;;33.46;68.47;100659.94;4953213;28;69730;-33
2022/07/23 09:08:47;;;;;;;32.75;19.67;;;;;;;33.34;69.38;100651.00;4955426;28;66688;-32
2022/07/23 09:11:19;;;;;;;23.93;18.00;;;;;;;33.36;69.83;100652.41;4950701;28;70038;-34
2022/07/23 09:13:58;;;;;;;25.63;17.52;;;;;;;33.28;69.45;100636.50;4951049;28;66171;-33
2022/07/23 09:16:31;;;;;;;26.55;15.68;;;;;;;33.42;69.05;100653.34;4956490;28;69522;-33
2022/07/23 09:19:05;;;;;;;18.92;14.98;;;;;;;33.08;69.84;100592.63;5020579;28;66082;-34
2022/07/23 09:21:38;;;;;;;24.27;14.30;;;;;;;33.35;69.31;100615.44;5013592;28;69825;-33
2022/07/23 09:24:11;;;;;;;21.65;12.20;;;;;;;33.28;70.58;100620.19;5024474;28;65227;-33
2022/07/23 09:26:47;;;;;;;12.90;10.25;;;;;;;33.06;69.57;100567.56;4959353;28;68963;-36
2022/07/23 09:29:25;;;;;;;14.30;10.15;;;;;;;33.20;70.04;100601.53;4956332;28;66440;-34
2022/07/23 09:32:07;;;;;;;15.88;10.77;;;;;;;33.25;69.77;100604.34;5016854;28;69988;-32
2022/07/23 09:34:39;;;;;;;12.73;9.52;;;;;;;33.21;69.99;100603.22;5004820;28;66819;-33
2022/07/23 09:37:16;;;;;;;16.35;10.10;;;;;;;33.22;69.45;100598.59;4956768;28;69582;-35
2022/07/23 09:39:48;;;;;;;11.40;9.02;;;;;;;33.19;69.18;100602.63;5035145;28;66552;-35
2022/07/23 09:42:22;;;;;;;10.90;8.82;;;;;;;33.25;69.20;100619.84;5017789;28;69494;-32
2022/07/23 09:44:57;;;;;;;13.25;8.80;;;;;;;33.01;70.50;100586.50;4950977;28;66271;-33
2022/07/23 09:47:32;;;;;;;11.82;9.13;;;;;;;32.57;70.14;100520.94;4956689;28;69934;-32
2022/07/23 09:50:15;;;;;;;13.18;8.57;;;;;;;33.12;70.99;100620.94;4956971;28;65861;-33
2022/07/23 09:52:48;;;;;;;12.70;9.27;;;;;;;33.13;69.67;100609.03;5015622;28;69714;-32
2022/07/23 09:55:19;;;;;;;13.13;8.35;;;;;;;33.15;69.74;100596.84;4952982;28;66119;-33
2022/07/23 09:57:53;;;;;;;11.60;8.65;;;;;;;33.14;70.15;100589.75;5018108;28;69763;-34
2022/07/23 10:00:24;;;;;;;14.00;7.72;;;;;;;33.15;69.76;100582.41;5009571;28;66082;-33
2022/07/23 10:02:56;;;;;;;9.63;8.15;;;;;;;33.13;69.41;100590.00;4954509;28;70380;-33
2022/07/23 10:05:31;;;;;;;13.35;8.30;;;;;;;32.98;70.52;100587.75;4958836;28;65702;-33
2022/07/23 10:08:22;;;;;;;9.40;8.05;;;;;;;33.06;70.25;100627.34;5007013;28;70150;-33
2022/07/23 10:11:01;;;;;;;9.07;7.70;;;;;;;33.04;69.94;100629.47;4952588;28;66251;-33
2022/07/23 10:16:25;;;;;;;8.73;7.93;;;;;;;32.91;69.74;100636.81;5007395;28;66039;-32
2022/07/23 10:18:57;;;;;;;12.02;7.90;;;;;;;32.94;70.03;100663.50;4958463;28;69067;-33
2022/07/23 10:21:41;;;;;;;9.57;8.63;;;;;;;32.45;69.63;100584.19;4954980;28;66402;-34
2022/07/23 10:24:41;;;;;;;12.70;9.07;;;;;;;32.82;69.63;100662.72;5020594;28;69960;-34
2022/07/23 10:27:32;;;;;;;9.65;8.75;;;;;;;32.43;69.70;100602.63;4955917;28;66644;-33
2022/07/23 10:30:08;;;;;;;9.52;8.63;;;;;;;32.79;69.25;100654.19;4954104;28;69641;-35
2022/07/23 10:33:05;;;;;;;9.55;8.63;;;;;;;32.82;69.61;100668.16;4956495;28;66432;-35
2022/07/23 10:36:04;;;;;;;9.82;9.02;;;;;;;32.76;69.57;100666.38;4952374;28;70896;-34
2022/07/23 10:38:51;;;;;;;9.73;8.00;;;;;;;32.43;69.59;100608.06;4951489;28;65660;-33
2022/07/23 10:41:38;;;;;;;8.80;8.10;;;;;;;32.46;69.40;100645.63;4956363;28;69657;-34
2022/07/23 10:44:17;;;;;;;10.88;8.45;;;;;;;32.64;68.91;100679.97;4953296;28;65679;-34
2022/07/23 10:49:53;;;;;;;10.98;10.13;;;;;;;32.57;71.93;100700.16;4955173;28;65319;-35
2022/07/23 10:52:27;;;;;;;11.75;10.57;;;;;;;31.93;72.21;100600.41;5013239;28;69139;-34
2022/07/23 10:55:11;;;;;;;11.90;10.82;;;;;;;32.31;72.75;100661.50;4955293;28;66182;-35
2022/07/23 10:57:50;;;;;;;10.57;9.55;;;;;;;31.92;73.51;100617.72;4948793;28;69395;-33
2022/07/23 11:00:25;;;;;;;12.15;11.15;;;;;;;31.89;73.59;100620.03;4956108;28;65797;-33
2022/07/23 11:03:08;;;;;;;12.27;11.13;;;;;;;32.19;74.38;100682.41;4955064;28;69201;-33
2022/07/23 11:05:42;;;;;;;12.48;11.38;;;;;;;31.89;74.10;100645.28;4950251;28;65704;-34
2022/07/23 11:08:20;;;;;;;11.65;10.65;;;;;;;31.81;74.33;100642.91;4949711;28;70344;-34
2022/07/23 11:11:01;;;;;;;16.02;12.07;;;;;;;32.11;74.51;100718.03;4951874;28;66446;-35
2022/07/23 11:13:38;;;;;;;12.43;11.35;;;;;;;32.07;74.42;100733.09;4953927;28;70119;-34
2022/07/23 11:16:16;;;;;;;12.55;11.45;;;;;;;32.07;74.82;100728.53;4954119;28;66535;-33
2022/07/23 11:18:54;;;;;;;12.60;11.50;;;;;;;32.08;74.89;100719.31;4946308;28;69928;-43
2022/07/23 11:21:29;;;;;;;11.13;10.13;;;;;;;32.06;74.76;100716.00;4956354;28;66737;-33
2022/07/23 11:24:15;;;;;;;12.70;11.40;;;;;;;31.71;74.94;100653.50;5031220;28;69939;-32
2022/07/23 11:27:00;;;;;;;13.18;11.63;;;;;;;31.98;75.24;100687.34;4957683;28;65853;-34
2022/07/23 11:29:31;;;;;;;13.55;11.63;;;;;;;32.03;75.04;100687.44;4953386;28;69863;-32
2022/07/23 11:32:07;;;;;;;16.90;11.20;;;;;;;32.02;74.95;100688.50;4954143;28;67988;-33
2022/07/23 11:34:39;;;;;;;12.38;11.25;;;;;;;32.02;75.57;100709.41;4955950;28;70587;-33
2022/07/23 11:37:34;;;;;;;11.80;10.55;;;;;;;31.90;75.33;100695.78;4952281;28;65758;-32
2022/07/23 11:40:10;;;;;;;15.18;11.07;;;;;;;32.03;75.70;100728.13;4959565;28;70416;-33
2022/07/23 11:43:05;;;;;;;16.02;12.07;;;;;;;31.93;76.26;100738.75;4957670;28;65230;-33
2022/07/23 11:45:39;;;;;;;12.60;11.52;;;;;;;32.04;75.44;100750.69;4957845;28;69993;-32
2022/07/23 11:48:23;;;;;;;14.48;10.73;;;;;;;32.02;75.91;100753.63;5039194;28;65927;-34